Time;durP1;ratioP1;P1;durP2;ratioP2;P2;SDS_P1;SDS_P2;PMS_P1;PMS_P2;Temp;Humidity;BMP_temperature;BMP_pressure;BME280_temperature;BME280_humidity;BME280_pressure;Samples;Min_cycle;Max_cycle;Signal;HPM_P1;HPM_P2
2024/04/19 00:01:57;;;;;;;1999.90;999.90;;;;;;;;;;5424867;26;20003;-78
2024/04/19 00:04:26;;;;;;;1999.90;999.90;;;;;;;;;;5427615;26;20000;-78
2024/04/19 00:06:51;;;;;;;1999.90;999.90;;;;;;;;;;5426571;26;20012;-79
2024/04/19 00:09:19;;;;;;;1999.90;999.90;;;;;;;;;;5430043;26;20007;-78
2024/04/19 00:11:46;;;;;;;1999.90;999.90;;;;;;;;;;5429725;26;20002;-78
2024/04/19 00:14:14;;;;;;;1999.90;999.90;;;;;;;;;;5430215;26;20013;-77
2024/04/19 00:16:40;;;;;;;1999.90;999.90;;;;;;;;;;5423130;26;20005;-77
2024/04/19 00:19:12;;;;;;;1999.90;999.90;;;;;;;;;;5421928;26;20042;-78
2024/04/19 00:21:37;;;;;;;1999.90;999.90;;;;;;;;;;5426567;26;20085;-78
2024/04/19 00:24:06;;;;;;;1999.90;999.90;;;;;;;;;;5430999;26;20011;-77
2024/04/19 00:26:31;;;;;;;1999.90;999.90;;;;;;;;;;5426939;26;20475;-77
2024/04/19 00:29:00;;;;;;;1999.90;999.90;;;;;;;;;;5422472;26;20015;-78
2024/04/19 00:31:26;;;;;;;1999.90;999.90;;;;;;;;;;5428404;26;20046;-77
2024/04/19 00:33:54;;;;;;;1999.90;999.90;;;;;;;;;;5431502;26;20746;-77
2024/04/19 00:36:22;;;;;;;1999.90;999.90;;;;;;;;;;5425258;26;20384;-78
2024/04/19 00:38:53;;;;;;;1999.90;999.90;;;;;;;;;;5426174;26;20009;-78
2024/04/19 00:41:18;;;;;;;1999.90;999.90;;;;;;;;;;5433096;26;20003;-78
2024/04/19 00:43:46;;;;;;;1999.90;999.90;;;;;;;;;;5428150;26;20046;-79
2024/04/19 00:46:12;;;;;;;1999.90;999.90;;;;;;;;;;5421939;26;20014;-79
2024/04/19 00:48:41;;;;;;;1999.90;999.90;;;;;;;;;;5428720;26;20369;-78
2024/04/19 00:51:08;;;;;;;1999.90;999.90;;;;;;;;;;5419757;26;20039;-78
2024/04/19 00:53:40;;;;;;;1999.90;999.90;;;;;;;;;;5427273;26;20011;-78
2024/04/19 00:56:06;;;;;;;1999.90;999.90;;;;;;;;;;5428008;26;20035;-78
2024/04/19 00:58:36;;;;;;;1999.90;999.90;;;;;;;;;;5426379;26;20032;-78
2024/04/19 01:01:03;;;;;;;1999.90;999.90;;;;;;;;;;5421332;26;20008;-78
2024/04/19 01:03:31;;;;;;;1999.90;999.90;;;;;;;;;;5428815;26;20035;-78
2024/04/19 01:05:57;;;;;;;1999.90;999.90;;;;;;;;;;5425600;26;20031;-78
2024/04/19 01:08:26;;;;;;;1999.90;999.90;;;;;;;;;;5426606;26;20745;-79
2024/04/19 01:10:54;;;;;;;1999.90;999.90;;;;;;;;;;5425905;26;19999;-79
2024/04/19 01:13:22;;;;;;;1999.90;999.90;;;;;;;;;;5428465;26;20004;-78
2024/04/19 01:15:48;;;;;;;1999.90;999.90;;;;;;;;;;5419310;26;20042;-79
2024/04/19 01:18:18;;;;;;;1999.90;999.90;;;;;;;;;;5435353;26;20510;-79
2024/04/19 01:20:44;;;;;;;1999.90;999.90;;;;;;;;;;5428012;26;19995;-79
2024/04/19 01:23:13;;;;;;;1999.90;999.90;;;;;;;;;;5422184;26;20039;-79
2024/04/19 01:25:40;;;;;;;1999.90;999.90;;;;;;;;;;5420606;26;20088;-79
2024/04/19 01:28:13;;;;;;;1999.90;999.90;;;;;;;;;;5424881;26;20010;-79
2024/04/19 01:30:40;;;;;;;1999.90;999.90;;;;;;;;;;5420813;26;20126;-79
2024/04/19 01:33:08;;;;;;;1999.90;999.90;;;;;;;;;;5431748;26;20010;-79
2024/04/19 01:35:34;;;;;;;1999.90;999.90;;;;;;;;;;5428138;26;20007;-79
2024/04/19 01:38:02;;;;;;;1999.90;999.90;;;;;;;;;;5430001;26;20449;-79
2024/04/19 01:40:28;;;;;;;1999.90;999.90;;;;;;;;;;5420444;26;20097;-79
2024/04/19 01:42:56;;;;;;;1999.90;999.90;;;;;;;;;;5430366;26;20431;-79
2024/04/19 01:45:24;;;;;;;1999.90;999.90;;;;;;;;;;5420515;26;20010;-79
2024/04/19 01:47:53;;;;;;;1999.90;999.90;;;;;;;;;;5419634;26;20003;-80
2024/04/19 01:50:19;;;;;;;1999.90;999.90;;;;;;;;;;5425023;26;20025;-79
2024/04/19 01:52:48;;;;;;;1999.90;999.90;;;;;;;;;;5429683;26;20015;-80
2024/04/19 01:55:14;;;;;;;1999.90;999.90;;;;;;;;;;5421969;26;20090;-79
2024/04/19 01:57:43;;;;;;;1999.90;999.90;;;;;;;;;;5426877;26;20023;-80
2024/04/19 02:00:10;;;;;;;1999.90;999.90;;;;;;;;;;5424614;26;19999;-79
2024/04/19 02:02:41;;;;;;;1999.90;999.90;;;;;;;;;;5424702;26;20067;-79
2024/04/19 02:05:06;;;;;;;1999.90;999.90;;;;;;;;;;5424704;26;20055;-79
2024/04/19 02:07:35;;;;;;;1999.90;999.90;;;;;;;;;;5422546;26;20403;-79
2024/04/19 02:10:01;;;;;;;1999.90;999.90;;;;;;;;;;5421935;26;20004;-79
2024/04/19 02:12:29;;;;;;;1999.90;999.90;;;;;;;;;;5426021;26;20762;-79
2024/04/19 02:14:55;;;;;;;1999.90;999.90;;;;;;;;;;5429248;26;20096;-79
2024/04/19 02:17:23;;;;;;;1999.90;999.90;;;;;;;;;;5427326;26;20007;-78
2024/04/19 02:19:51;;;;;;;1999.90;999.90;;;;;;;;;;5427649;26;20011;-78
2024/04/19 02:22:19;;;;;;;1999.90;999.90;;;;;;;;;;5423377;26;20011;-78
2024/04/19 02:24:45;;;;;;;1999.90;999.90;;;;;;;;;;5426795;26;20004;-77
2024/04/19 02:30:52;;;;;;;1999.90;999.90;;;;;;;;;;5430814;26;20003;-78
2024/04/19 02:32:53;;;;;;;1999.90;999.90;;;;;;;;;;5426834;26;20083;-78
2024/04/19 02:35:24;;;;;;;1999.90;999.90;;;;;;;;;;5427785;26;20007;-79
2024/04/19 02:37:52;;;;;;;1999.90;999.90;;;;;;;;;;5428380;26;20011;-77
2024/04/19 02:40:21;;;;;;;1999.90;999.90;;;;;;;;;;5429714;26;19996;-78
2024/04/19 02:42:49;;;;;;;1999.90;999.90;;;;;;;;;;5430156;26;20030;-78
2024/04/19 02:45:17;;;;;;;1999.90;999.90;;;;;;;;;;5431489;26;20040;-78
2024/04/19 02:47:45;;;;;;;1999.90;999.90;;;;;;;;;;5427219;26;20031;-80
2024/04/19 02:50:13;;;;;;;1999.90;999.90;;;;;;;;;;5431178;26;20672;-79
2024/04/19 02:52:44;;;;;;;1999.90;999.90;;;;;;;;;;5427978;26;20003;-79
2024/04/19 02:55:14;;;;;;;1999.90;999.90;;;;;;;;;;5425022;26;20190;-80
2024/04/19 02:57:42;;;;;;;1999.90;999.90;;;;;;;;;;5429259;26;20529;-80
2024/04/19 03:00:11;;;;;;;1999.90;999.90;;;;;;;;;;5429593;26;20101;-79
2024/04/19 03:02:39;;;;;;;1999.90;999.90;;;;;;;;;;5428884;26;20031;-79
2024/04/19 03:05:07;;;;;;;1999.90;999.90;;;;;;;;;;5429457;26;20008;-80
2024/04/19 03:07:35;;;;;;;1999.90;999.90;;;;;;;;;;5423667;26;20067;-79
2024/04/19 03:10:07;;;;;;;1999.90;999.90;;;;;;;;;;5437536;26;20514;-79
2024/04/19 03:12:35;;;;;;;1999.90;999.90;;;;;;;;;;5431827;26;20461;-78
2024/04/19 03:15:03;;;;;;;1999.90;999.90;;;;;;;;;;5429571;26;20027;-78
2024/04/19 03:17:32;;;;;;;1999.90;999.90;;;;;;;;;;5424722;26;20015;-79
2024/04/19 03:20:10;;;;;;;1999.90;999.90;;;;;;;;;;5426491;26;19999;-79
2024/04/19 03:22:38;;;;;;;1999.90;999.90;;;;;;;;;;5427874;26;20018;-79
2024/04/19 03:25:10;;;;;;;1999.90;999.90;;;;;;;;;;5428022;26;20011;-79
2024/04/19 03:27:38;;;;;;;1999.90;999.90;;;;;;;;;;5425598;26;20014;-79
2024/04/19 03:30:07;;;;;;;1999.90;999.90;;;;;;;;;;5425737;26;20184;-80
2024/04/19 03:32:35;;;;;;;1999.90;999.90;;;;;;;;;;5427851;26;20146;-79
2024/04/19 03:35:04;;;;;;;1999.90;999.90;;;;;;;;;;5431851;26;20017;-79
2024/04/19 03:37:32;;;;;;;1999.90;999.90;;;;;;;;;;5428742;26;20008;-80
2024/04/19 03:40:00;;;;;;;1999.90;999.90;;;;;;;;;;5431140;26;20022;-80
2024/04/19 03:42:31;;;;;;;1999.90;999.90;;;;;;;;;;5428560;26;20015;-79
2024/04/19 03:47:44;;;;;;;1999.90;999.90;;;;;;;;;;5432983;26;20023;-79
2024/04/19 03:50:12;;;;;;;1999.90;999.90;;;;;;;;;;5429198;26;20077;-79
2024/04/19 03:52:40;;;;;;;1999.90;999.90;;;;;;;;;;5429508;26;19999;-79
2024/04/19 03:55:08;;;;;;;1999.90;999.90;;;;;;;;;;5431292;26;20047;-79
2024/04/19 03:57:39;;;;;;;1999.90;999.90;;;;;;;;;;5431900;26;20054;-79
2024/04/19 04:00:09;;;;;;;1999.90;999.90;;;;;;;;;;5417509;26;20098;-79
2024/04/19 04:02:37;;;;;;;1999.90;999.90;;;;;;;;;;5428350;26;20003;-80
2024/04/19 04:05:05;;;;;;;1999.90;999.90;;;;;;;;;;5430242;26;20006;-80
2024/04/19 04:07:33;;;;;;;1999.90;999.90;;;;;;;;;;5426008;26;20098;-79
2024/04/19 04:09:59;;;;;;;1999.90;999.90;;;;;;;;;;5425767;26;20458;-79
2024/04/19 04:12:29;;;;;;;1999.90;999.90;;;;;;;;;;5423571;26;20092;-78
2024/04/19 04:15:01;;;;;;;1999.90;999.90;;;;;;;;;;5426578;26;20003;-80
2024/04/19 04:17:30;;;;;;;1999.90;999.90;;;;;;;;;;5422583;26;20015;-79
2024/04/19 04:19:58;;;;;;;1999.90;999.90;;;;;;;;;;5427560;26;20013;-79
2024/04/19 04:22:27;;;;;;;1999.90;999.90;;;;;;;;;;5430274;26;20156;-80
2024/04/19 04:24:55;;;;;;;1999.90;999.90;;;;;;;;;;5428754;26;20039;-80
2024/04/19 04:27:23;;;;;;;1999.90;999.90;;;;;;;;;;5424311;26;20492;-80
2024/04/19 04:29:51;;;;;;;1999.90;999.90;;;;;;;;;;5421227;26;20000;-79
2024/04/19 04:32:22;;;;;;;1999.90;999.90;;;;;;;;;;5426760;26;20003;-79
2024/04/19 04:34:51;;;;;;;1999.90;999.90;;;;;;;;;;5426657;26;20097;-79
2024/04/19 04:37:20;;;;;;;1999.90;999.90;;;;;;;;;;5425220;26;19999;-79
2024/04/19 04:39:48;;;;;;;1999.90;999.90;;;;;;;;;;5418731;26;20039;-79
2024/04/19 04:42:17;;;;;;;1999.90;999.90;;;;;;;;;;5428286;26;20019;-79
2024/04/19 04:44:45;;;;;;;1999.90;999.90;;;;;;;;;;5425376;26;20014;-79
2024/04/19 04:47:13;;;;;;;1999.90;999.90;;;;;;;;;;5422128;26;20026;-80
2024/04/19 04:49:44;;;;;;;1999.90;999.90;;;;;;;;;;5424553;26;20006;-79
2024/04/19 04:52:12;;;;;;;1999.90;999.90;;;;;;;;;;5429941;26;20094;-79
2024/04/19 04:54:40;;;;;;;1999.90;999.90;;;;;;;;;;5427248;26;20085;-79
2024/04/19 04:57:09;;;;;;;1999.90;999.90;;;;;;;;;;5429084;26;19999;-79
2024/04/19 04:59:38;;;;;;;1999.90;999.90;;;;;;;;;;5426243;26;20007;-78
2024/04/19 05:02:06;;;;;;;1999.90;999.90;;;;;;;;;;5428786;26;20014;-79
2024/04/19 05:04:35;;;;;;;1999.90;999.90;;;;;;;;;;5429078;26;19999;-79
2024/04/19 05:07:06;;;;;;;1999.90;999.90;;;;;;;;;;5423265;26;20472;-79
2024/04/19 05:09:34;;;;;;;1999.90;999.90;;;;;;;;;;5426431;26;20004;-79
2024/04/19 05:12:02;;;;;;;1999.90;999.90;;;;;;;;;;5425117;26;20027;-80
2024/04/19 05:14:30;;;;;;;1999.90;999.90;;;;;;;;;;5420784;26;20022;-79
2024/04/19 05:16:59;;;;;;;1999.90;999.90;;;;;;;;;;5421704;26;19999;-78
2024/04/19 05:19:27;;;;;;;1999.90;999.90;;;;;;;;;;5419599;26;20006;-79
2024/04/19 05:21:55;;;;;;;1999.90;999.90;;;;;;;;;;5432673;26;20018;-79
2024/04/19 05:24:26;;;;;;;1999.90;999.90;;;;;;;;;;5420098;26;20797;-80
2024/04/19 05:26:56;;;;;;;1999.90;999.90;;;;;;;;;;5419164;26;20021;-78
2024/04/19 05:29:25;;;;;;;1999.90;999.90;;;;;;;;;;5426114;26;19999;-79
2024/04/19 05:31:53;;;;;;;1999.90;999.90;;;;;;;;;;5424376;26;20461;-79
2024/04/19 05:34:22;;;;;;;1999.90;999.90;;;;;;;;;;5422522;26;20000;-79
2024/04/19 05:36:50;;;;;;;1999.90;999.90;;;;;;;;;;5424148;26;20045;-79
2024/04/19 05:39:18;;;;;;;1999.90;999.90;;;;;;;;;;5421724;26;19999;-79
2024/04/19 05:41:49;;;;;;;1999.90;999.90;;;;;;;;;;5425825;26;20035;-79
2024/04/19 05:44:18;;;;;;;1999.90;999.90;;;;;;;;;;5422741;26;20004;-79
2024/04/19 05:46:47;;;;;;;1999.90;999.90;;;;;;;;;;5427994;26;20009;-78
2024/04/19 05:49:15;;;;;;;1999.90;999.90;;;;;;;;;;5431750;26;20013;-79
2024/04/19 05:51:43;;;;;;;1999.90;999.90;;;;;;;;;;5429444;26;19996;-79
2024/04/19 05:54:11;;;;;;;1999.90;999.90;;;;;;;;;;5435126;26;20093;-78
2024/04/19 05:56:40;;;;;;;1999.90;999.90;;;;;;;;;;5430347;26;20101;-78
2024/04/19 05:59:11;;;;;;;1999.90;999.90;;;;;;;;;;5426697;26;20035;-79
2024/04/19 06:01:40;;;;;;;1999.90;999.90;;;;;;;;;;5417353;26;19995;-78
2024/04/19 06:04:08;;;;;;;1999.90;999.90;;;;;;;;;;5429721;26;20002;-79
2024/04/19 06:06:37;;;;;;;1999.90;999.90;;;;;;;;;;5429135;26;19999;-79
2024/04/19 06:09:05;;;;;;;1999.90;999.90;;;;;;;;;;5431912;26;20469;-78
2024/04/19 06:11:33;;;;;;;1999.90;999.90;;;;;;;;;;5435472;26;20010;-78
2024/04/19 06:14:02;;;;;;;1999.90;999.90;;;;;;;;;;5432387;26;20358;-79
2024/04/19 06:16:32;;;;;;;1999.90;999.90;;;;;;;;;;5422869;26;20003;-79
2024/04/19 06:19:01;;;;;;;1999.90;999.90;;;;;;;;;;5424289;26;20439;-78
2024/04/19 06:21:30;;;;;;;1999.90;999.90;;;;;;;;;;5434852;26;20020;-79
2024/04/19 06:23:58;;;;;;;1999.90;999.90;;;;;;;;;;5428700;26;20130;-78
2024/04/19 06:26:26;;;;;;;1999.90;999.90;;;;;;;;;;5425061;26;20003;-79
2024/04/19 06:28:54;;;;;;;1999.90;999.90;;;;;;;;;;5428890;26;20448;-79
2024/04/19 06:31:23;;;;;;;1999.90;999.90;;;;;;;;;;5425006;26;20187;-79
2024/04/19 06:33:53;;;;;;;1999.90;999.90;;;;;;;;;;5427786;26;20019;-78
2024/04/19 06:36:22;;;;;;;1999.90;999.90;;;;;;;;;;5431037;26;20039;-79
2024/04/19 06:38:51;;;;;;;1999.90;999.90;;;;;;;;;;5427611;26;20018;-78
2024/04/19 06:41:19;;;;;;;1999.90;999.90;;;;;;;;;;5428896;26;20039;-78
2024/04/19 06:43:48;;;;;;;1999.90;999.90;;;;;;;;;;5430084;26;20092;-78
2024/04/19 06:46:17;;;;;;;1999.90;999.90;;;;;;;;;;5425772;26;19996;-78
2024/04/19 06:48:45;;;;;;;1999.90;999.90;;;;;;;;;;5424250;26;20013;-78
2024/04/19 06:51:16;;;;;;;1999.90;999.90;;;;;;;;;;5432134;26;20002;-79
2024/04/19 06:53:44;;;;;;;1999.90;999.90;;;;;;;;;;5430067;26;20015;-78
2024/04/19 06:56:12;;;;;;;1999.90;999.90;;;;;;;;;;5425248;26;20085;-79
2024/04/19 06:58:43;;;;;;;1999.90;999.90;;;;;;;;;;5428798;26;20014;-78
2024/04/19 07:01:11;;;;;;;1999.90;999.90;;;;;;;;;;5428018;26;20024;-78
2024/04/19 07:03:39;;;;;;;1999.90;999.90;;;;;;;;;;5431310;26;20031;-78
2024/04/19 07:06:12;;;;;;;1999.90;999.90;;;;;;;;;;5429583;26;20053;-78
2024/04/19 07:08:43;;;;;;;1999.90;999.90;;;;;;;;;;5427958;26;20039;-78
2024/04/19 07:11:11;;;;;;;1999.90;999.90;;;;;;;;;;5428276;26;20015;-77
2024/04/19 07:13:40;;;;;;;1999.90;999.90;;;;;;;;;;5428669;26;19998;-79
2024/04/19 07:16:09;;;;;;;1999.90;999.90;;;;;;;;;;5432157;26;20021;-77
2024/04/19 07:18:37;;;;;;;1999.90;999.90;;;;;;;;;;5427309;26;20106;-78
2024/04/19 07:21:06;;;;;;;1999.90;999.90;;;;;;;;;;5431776;26;20003;-79
2024/04/19 07:23:34;;;;;;;1999.90;999.90;;;;;;;;;;5428354;26;20489;-78
2024/04/19 07:26:05;;;;;;;1999.90;999.90;;;;;;;;;;5427346;26;20011;-78
2024/04/19 07:28:33;;;;;;;1999.90;999.90;;;;;;;;;;5430178;26;20080;-78
2024/04/19 07:31:01;;;;;;;1999.90;999.90;;;;;;;;;;5422890;26;20028;-79
2024/04/19 07:33:30;;;;;;;1999.90;999.90;;;;;;;;;;5428814;26;20003;-79
2024/04/19 07:35:58;;;;;;;1999.90;999.90;;;;;;;;;;5432103;26;20023;-77
2024/04/19 07:38:26;;;;;;;1999.90;999.90;;;;;;;;;;5432780;26;20543;-78
2024/04/19 07:40:54;;;;;;;1999.90;999.90;;;;;;;;;;5426289;26;20098;-78
2024/04/19 07:43:26;;;;;;;1999.90;999.90;;;;;;;;;;5426408;26;20076;-79
2024/04/19 07:45:54;;;;;;;1999.90;999.90;;;;;;;;;;5430385;26;20000;-79
2024/04/19 07:48:22;;;;;;;1999.90;999.90;;;;;;;;;;5427618;26;20104;-79
2024/04/19 07:50:56;;;;;;;1999.90;999.90;;;;;;;;;;5425457;26;20509;-78
2024/04/19 07:53:24;;;;;;;1999.90;999.90;;;;;;;;;;5432552;26;20043;-78
2024/04/19 07:55:52;;;;;;;1999.90;999.90;;;;;;;;;;5428665;26;20039;-80
2024/04/19 07:58:23;;;;;;;1999.90;999.90;;;;;;;;;;5427850;26;20007;-79
2024/04/19 08:00:55;;;;;;;1999.90;999.90;;;;;;;;;;5432581;26;20014;-79
2024/04/19 08:03:24;;;;;;;1999.90;999.90;;;;;;;;;;5432447;26;19998;-80
2024/04/19 08:05:52;;;;;;;1999.90;999.90;;;;;;;;;;5430694;26;20178;-79
2024/04/19 08:08:21;;;;;;;1999.90;999.90;;;;;;;;;;5423509;26;20000;-78
2024/04/19 08:10:49;;;;;;;1999.90;999.90;;;;;;;;;;5429696;26;20452;-78
2024/04/19 08:13:17;;;;;;;1999.90;999.90;;;;;;;;;;5425398;26;20453;-78
2024/04/19 08:15:45;;;;;;;1999.90;999.90;;;;;;;;;;5432675;26;20043;-78
2024/04/19 08:18:16;;;;;;;1999.90;999.90;;;;;;;;;;5432058;26;20420;-79
2024/04/19 08:20:44;;;;;;;1999.90;999.90;;;;;;;;;;5421534;26;20087;-79
2024/04/19 08:23:13;;;;;;;1999.90;999.90;;;;;;;;;;5431255;26;20003;-78
2024/04/19 08:25:41;;;;;;;1999.90;999.90;;;;;;;;;;5426406;26;20007;-80
2024/04/19 08:28:09;;;;;;;1999.90;999.90;;;;;;;;;;5429412;26;20014;-80
2024/04/19 08:30:37;;;;;;;1999.90;999.90;;;;;;;;;;5428266;26;20039;-78
2024/04/19 08:33:06;;;;;;;1999.90;999.90;;;;;;;;;;5428919;26;20071;-78
2024/04/19 08:35:36;;;;;;;1999.90;999.90;;;;;;;;;;5430082;26;20011;-80
2024/04/19 08:38:05;;;;;;;1999.90;999.90;;;;;;;;;;5424450;26;20454;-80
2024/04/19 08:40:34;;;;;;;1999.90;999.90;;;;;;;;;;5427287;26;20006;-80
2024/04/19 08:43:04;;;;;;;1999.90;999.90;;;;;;;;;;5424704;26;20080;-81
2024/04/19 08:45:33;;;;;;;1999.90;999.90;;;;;;;;;;5429164;26;20084;-79
2024/04/19 08:48:02;;;;;;;1999.90;999.90;;;;;;;;;;5427635;26;20853;-79
2024/04/19 08:50:33;;;;;;;1999.90;999.90;;;;;;;;;;5427607;26;20025;-80
2024/04/19 08:53:08;;;;;;;1999.90;999.90;;;;;;;;;;5424353;26;20035;-82
2024/04/19 08:55:38;;;;;;;1999.90;999.90;;;;;;;;;;5424766;26;20000;-81
2024/04/19 08:58:07;;;;;;;1999.90;999.90;;;;;;;;;;5424208;26;20010;-80
2024/04/19 09:00:35;;;;;;;1999.90;999.90;;;;;;;;;;5432791;26;20079;-81
2024/04/19 09:03:03;;;;;;;1999.90;999.90;;;;;;;;;;5425537;26;20011;-81
2024/04/19 09:05:29;;;;;;;1999.90;999.90;;;;;;;;;;5427382;26;20094;-80
2024/04/19 09:07:58;;;;;;;1999.90;999.90;;;;;;;;;;5428066;26;20000;-81
2024/04/19 09:10:29;;;;;;;1999.90;999.90;;;;;;;;;;5433691;26;19999;-80
2024/04/19 09:12:57;;;;;;;1999.90;999.90;;;;;;;;;;5431000;26;20089;-80
2024/04/19 09:15:28;;;;;;;1999.90;999.90;;;;;;;;;;5425863;26;19998;-81
2024/04/19 09:17:56;;;;;;;1999.90;999.90;;;;;;;;;;5431529;26;20014;-81
2024/04/19 09:20:25;;;;;;;1999.90;999.90;;;;;;;;;;5426344;26;20057;-83
2024/04/19 09:22:53;;;;;;;1999.90;999.90;;;;;;;;;;5430851;26;20461;-82
2024/04/19 09:25:21;;;;;;;1999.90;999.90;;;;;;;;;;5424515;26;20539;-80
2024/04/19 09:27:54;;;;;;;1999.90;999.90;;;;;;;;;;5429671;26;20050;-84
2024/04/19 09:30:24;;;;;;;1999.90;999.90;;;;;;;;;;5429666;26;20117;-84
2024/04/19 09:32:53;;;;;;;1999.90;999.90;;;;;;;;;;5424838;26;20083;-82
2024/04/19 09:35:26;;;;;;;1999.90;999.90;;;;;;;;;;5426537;26;20082;-80
2024/04/19 09:37:55;;;;;;;1999.90;999.90;;;;;;;;;;5428750;26;20095;-86
2024/04/19 09:40:27;;;;;;;1999.90;999.90;;;;;;;;;;5433615;26;20051;-80
2024/04/19 09:43:05;;;;;;;1999.90;999.90;;;;;;;;;;5429135;26;20024;-79
2024/04/19 09:45:41;;;;;;;1999.90;999.90;;;;;;;;;;5431430;26;19999;-80
2024/04/19 09:48:12;;;;;;;1999.90;999.90;;;;;;;;;;5428808;26;20011;-81
2024/04/19 09:50:41;;;;;;;1999.90;999.90;;;;;;;;;;5432422;26;19998;-85
2024/04/19 09:53:15;;;;;;;1999.90;999.90;;;;;;;;;;5426074;26;19999;-88
2024/04/19 09:55:54;;;;;;;1999.90;999.90;;;;;;;;;;5432990;26;20004;-87
2024/04/19 09:58:26;;;;;;;1999.90;999.90;;;;;;;;;;5433748;26;20003;-85
2024/04/19 10:00:55;;;;;;;1999.90;999.90;;;;;;;;;;5436582;26;20018;-85
2024/04/19 10:03:24;;;;;;;1999.90;999.90;;;;;;;;;;5433234;26;20018;-79
2024/04/19 10:05:52;;;;;;;1999.90;999.90;;;;;;;;;;5425412;26;20004;-82
2024/04/19 10:08:23;;;;;;;1999.90;999.90;;;;;;;;;;5429721;26;20458;-80
2024/04/19 10:10:52;;;;;;;1999.90;999.90;;;;;;;;;;5431786;26;19995;-79
2024/04/19 10:13:21;;;;;;;1999.90;999.90;;;;;;;;;;5436857;26;20031;-80
2024/04/19 10:15:52;;;;;;;1999.90;999.90;;;;;;;;;;5438539;26;20003;-79
2024/04/19 10:18:21;;;;;;;1999.90;999.90;;;;;;;;;;5434154;26;20105;-81
2024/04/19 10:21:28;;;;;;;1999.90;999.90;;;;;;;;;;5432626;26;20078;-78
2024/04/19 10:23:56;;;;;;;1999.90;999.90;;;;;;;;;;5425546;26;20004;-80
2024/04/19 10:26:25;;;;;;;1999.90;999.90;;;;;;;;;;5430950;26;20058;-78
2024/04/19 10:28:55;;;;;;;1999.90;999.90;;;;;;;;;;5433870;26;20103;-81
2024/04/19 10:31:26;;;;;;;1999.90;999.90;;;;;;;;;;5426445;26;20025;-82
2024/04/19 10:33:55;;;;;;;1999.90;999.90;;;;;;;;;;5424773;26;20089;-79
2024/04/19 10:36:30;;;;;;;1999.90;999.90;;;;;;;;;;5426771;26;20015;-82
2024/04/19 10:38:59;;;;;;;1999.90;999.90;;;;;;;;;;5425810;26;19999;-81
2024/04/19 10:41:27;;;;;;;1999.90;999.90;;;;;;;;;;5430034;26;20039;-79
2024/04/19 10:43:56;;;;;;;1999.90;999.90;;;;;;;;;;5424991;26;20036;-78
2024/04/19 10:46:27;;;;;;;1999.90;999.90;;;;;;;;;;5429348;26;20042;-79
2024/04/19 10:48:55;;;;;;;1999.90;999.90;;;;;;;;;;5436101;26;19999;-83
2024/04/19 10:51:25;;;;;;;1999.90;999.90;;;;;;;;;;5428402;26;20010;-83
2024/04/19 10:53:53;;;;;;;1999.90;999.90;;;;;;;;;;5434926;26;20076;-82
2024/04/19 10:56:22;;;;;;;1999.90;999.90;;;;;;;;;;5437434;26;20011;-81
2024/04/19 10:58:50;;;;;;;1999.90;999.90;;;;;;;;;;5434965;26;20002;-82
2024/04/19 11:01:19;;;;;;;1999.90;999.90;;;;;;;;;;5429532;26;20010;-84
2024/04/19 11:03:50;;;;;;;1999.90;999.90;;;;;;;;;;5429854;26;20081;-83
2024/04/19 11:06:19;;;;;;;1999.90;999.90;;;;;;;;;;5431041;26;20484;-83
2024/04/19 11:08:48;;;;;;;1999.90;999.90;;;;;;;;;;5431175;26;20113;-81
2024/04/19 11:11:16;;;;;;;1999.90;999.90;;;;;;;;;;5426236;26;20011;-82
2024/04/19 11:13:45;;;;;;;1999.90;999.90;;;;;;;;;;5433941;26;20014;-80
2024/04/19 11:16:13;;;;;;;1999.90;999.90;;;;;;;;;;5423338;26;20015;-80
2024/04/19 11:18:42;;;;;;;1999.90;999.90;;;;;;;;;;5432226;26;20070;-79
2024/04/19 11:21:13;;;;;;;1999.90;999.90;;;;;;;;;;5429993;26;19999;-83
2024/04/19 11:23:42;;;;;;;1999.90;999.90;;;;;;;;;;5429938;26;20003;-82
2024/04/19 11:26:10;;;;;;;1999.90;999.90;;;;;;;;;;5424078;26;20170;-85
2024/04/19 11:28:36;;;;;;;1999.90;999.90;;;;;;;;;;5433253;26;20014;-81
2024/04/19 11:31:11;;;;;;;1999.90;999.90;;;;;;;;;;5427458;26;20336;-82
2024/04/19 11:33:39;;;;;;;1999.90;999.90;;;;;;;;;;5426986;26;20018;-80
2024/04/19 11:36:10;;;;;;;1999.90;999.90;;;;;;;;;;5422767;26;20050;-82
2024/04/19 11:38:41;;;;;;;1999.90;999.90;;;;;;;;;;5431817;26;20042;-84
2024/04/19 11:41:13;;;;;;;1999.90;999.90;;;;;;;;;;5427390;26;20109;-81
2024/04/19 11:43:41;;;;;;;1999.90;999.90;;;;;;;;;;5428597;26;20663;-82
2024/04/19 11:46:09;;;;;;;1999.90;999.90;;;;;;;;;;5431392;26;20485;-80
2024/04/19 11:48:38;;;;;;;1999.90;999.90;;;;;;;;;;5427946;26;20036;-82
2024/04/19 11:51:06;;;;;;;1999.90;999.90;;;;;;;;;;5424971;26;19999;-80
2024/04/19 11:53:35;;;;;;;1999.90;999.90;;;;;;;;;;5431979;26;20056;-82
2024/04/19 11:56:06;;;;;;;1999.90;999.90;;;;;;;;;;5430124;26;20003;-83
2024/04/19 11:58:36;;;;;;;1999.90;999.90;;;;;;;;;;5426237;26;20042;-80
2024/04/19 12:01:10;;;;;;;1999.90;999.90;;;;;;;;;;5428164;26;20003;-82
2024/04/19 12:03:38;;;;;;;1999.90;999.90;;;;;;;;;;5429350;26;20014;-81
2024/04/19 12:06:07;;;;;;;1999.90;999.90;;;;;;;;;;5424404;26;20064;-79
2024/04/19 12:08:35;;;;;;;1999.90;999.90;;;;;;;;;;5434139;26;20006;-83
2024/04/19 12:11:06;;;;;;;1999.90;999.90;;;;;;;;;;5435748;26;20063;-82
2024/04/19 12:13:35;;;;;;;1999.90;999.90;;;;;;;;;;5432686;26;20075;-80
2024/04/19 12:16:04;;;;;;;1999.90;999.90;;;;;;;;;;5433623;26;20014;-81
2024/04/19 12:18:33;;;;;;;1999.90;999.90;;;;;;;;;;5425603;26;20011;-83
2024/04/19 12:21:01;;;;;;;1999.90;999.90;;;;;;;;;;5426091;26;20322;-80
2024/04/19 12:23:29;;;;;;;1999.90;999.90;;;;;;;;;;5430342;26;20468;-84
2024/04/19 12:25:58;;;;;;;1999.90;999.90;;;;;;;;;;5426509;26;20015;-82
2024/04/19 12:28:29;;;;;;;1999.90;999.90;;;;;;;;;;5427030;26;20051;-82
2024/04/19 12:30:57;;;;;;;1999.90;999.90;;;;;;;;;;5424210;26;20003;-83
2024/04/19 12:33:26;;;;;;;1999.90;999.90;;;;;;;;;;5423727;26;20014;-82
2024/04/19 12:35:54;;;;;;;1999.90;999.90;;;;;;;;;;5424135;26;20008;-80
2024/04/19 12:38:24;;;;;;;1999.90;999.90;;;;;;;;;;5428265;26;20015;-81
2024/04/19 12:40:52;;;;;;;1999.90;999.90;;;;;;;;;;5429349;26;20014;-81
2024/04/19 12:43:21;;;;;;;1999.90;999.90;;;;;;;;;;5428450;26;20089;-85
2024/04/19 12:45:52;;;;;;;1999.90;999.90;;;;;;;;;;5426089;26;20094;-82
2024/04/19 12:48:21;;;;;;;1999.90;999.90;;;;;;;;;;5430688;26;19996;-80
2024/04/19 12:50:49;;;;;;;1999.90;999.90;;;;;;;;;;5426413;26;20009;-80
2024/04/19 12:53:17;;;;;;;1999.90;999.90;;;;;;;;;;5431857;26;20011;-79
2024/04/19 12:55:46;;;;;;;1999.90;999.90;;;;;;;;;;5430731;26;20458;-81
2024/04/19 12:58:14;;;;;;;1999.90;999.90;;;;;;;;;;5427991;26;20100;-79
2024/04/19 13:00:42;;;;;;;1999.90;999.90;;;;;;;;;;5431796;26;20011;-80
2024/04/19 13:03:13;;;;;;;1999.90;999.90;;;;;;;;;;5432344;26;20016;-85
2024/04/19 13:05:41;;;;;;;1999.90;999.90;;;;;;;;;;5424436;26;20016;-81
2024/04/19 13:08:10;;;;;;;1999.90;999.90;;;;;;;;;;5426647;26;20080;-80
2024/04/19 13:10:38;;;;;;;1999.90;999.90;;;;;;;;;;5422704;26;20000;-79
2024/04/19 13:13:09;;;;;;;1999.90;999.90;;;;;;;;;;5431792;26;20006;-80
2024/04/19 13:15:37;;;;;;;1999.90;999.90;;;;;;;;;;5438474;26;20014;-79
2024/04/19 13:18:06;;;;;;;1999.90;999.90;;;;;;;;;;5432061;26;20103;-81
2024/04/19 13:20:46;;;;;;;1999.90;999.90;;;;;;;;;;5426917;26;20007;-80
2024/04/19 13:23:14;;;;;;;1999.90;999.90;;;;;;;;;;5423824;26;20102;-80
2024/04/19 13:25:42;;;;;;;1999.90;999.90;;;;;;;;;;5428325;26;20451;-81
2024/04/19 13:28:11;;;;;;;1999.90;999.90;;;;;;;;;;5435649;26;20034;-80
2024/04/19 13:30:39;;;;;;;1999.90;999.90;;;;;;;;;;5428102;26;20018;-80
2024/04/19 13:33:07;;;;;;;1999.90;999.90;;;;;;;;;;5427504;26;20458;-79
2024/04/19 13:35:36;;;;;;;1999.90;999.90;;;;;;;;;;5427800;26;20014;-80
2024/04/19 13:38:07;;;;;;;1999.90;999.90;;;;;;;;;;5424093;26;19998;-80
2024/04/19 13:40:35;;;;;;;1999.90;999.90;;;;;;;;;;5438752;26;20831;-81
2024/04/19 13:43:03;;;;;;;1999.90;999.90;;;;;;;;;;5426659;26;19995;-80
2024/04/19 13:45:31;;;;;;;1999.90;999.90;;;;;;;;;;5433378;26;20035;-80
2024/04/19 13:48:00;;;;;;;1999.90;999.90;;;;;;;;;;5427151;26;20335;-79
2024/04/19 13:50:28;;;;;;;1999.90;999.90;;;;;;;;;;5431057;26;20007;-80
2024/04/19 13:52:56;;;;;;;1999.90;999.90;;;;;;;;;;5426890;26;19999;-79
2024/04/19 13:55:28;;;;;;;1999.90;999.90;;;;;;;;;;5428739;26;20017;-79
2024/04/19 13:57:56;;;;;;;1999.90;999.90;;;;;;;;;;5433823;26;20007;-79